createdAt,value
2023-04-19T00:00:52.986Z,72.07
2023-04-19T00:03:21.094Z,72.49
2023-04-19T00:05:49.263Z,71.64
2023-04-19T00:08:17.154Z,72.25
2023-04-19T00:10:46.526Z,71.66
2023-04-19T00:13:14.463Z,71.63
2023-04-19T00:15:42.439Z,71.72
2023-04-19T00:18:10.457Z,71.29
2023-04-19T00:20:40.013Z,72.00
2023-04-19T00:23:07.934Z,72.96
2023-04-19T00:25:36.023Z,74.27
2023-04-19T00:28:05.650Z,73.95
2023-04-19T00:30:33.674Z,73.00
2023-04-19T00:33:01.640Z,72.66
2023-04-19T00:35:29.654Z,72.45
2023-04-19T00:37:57.554Z,72.44
2023-04-19T00:40:25.569Z,72.82
2023-04-19T00:42:53.467Z,72.89
2023-04-19T00:45:22.790Z,72.51
2023-04-19T00:47:52.934Z,73.07
2023-04-19T00:50:21.343Z,73.39
2023-04-19T00:52:49.666Z,73.37
2023-04-19T00:55:17.632Z,74.27
2023-04-19T00:57:45.552Z,73.87
2023-04-19T01:00:15.050Z,73.30
2023-04-19T01:02:44.442Z,73.80
2023-04-19T01:05:13.033Z,73.49
2023-04-19T01:07:41.200Z,73.84
2023-04-19T01:10:10.260Z,73.64
2023-04-19T01:12:38.300Z,73.07
2023-04-19T01:15:07.293Z,73.44
2023-04-19T01:17:36.162Z,74.45
2023-04-19T01:20:09.064Z,75.23
2023-04-19T01:22:40.220Z,75.76
2023-04-19T01:25:09.646Z,75.06
2023-04-19T01:27:37.553Z,74.40
2023-04-19T01:30:06.457Z,75.01
2023-04-19T01:32:34.438Z,75.56
2023-04-19T01:35:02.463Z,75.57
2023-04-19T01:37:31.498Z,75.46
2023-04-19T01:40:01.143Z,75.00
2023-04-19T01:42:29.482Z,74.34
2023-04-19T01:44:57.420Z,74.01
2023-04-19T01:47:25.425Z,74.15
2023-04-19T01:49:53.377Z,74.17
2023-04-19T01:52:21.611Z,74.19
2023-04-19T01:54:49.793Z,73.90
2023-04-19T01:57:19.861Z,73.85
2023-04-19T01:59:48.769Z,74.06
2023-04-19T02:02:16.837Z,74.43
2023-04-19T02:04:44.929Z,73.63
2023-04-19T02:07:12.813Z,74.08
2023-04-19T02:09:40.798Z,74.13
2023-04-19T02:12:08.995Z,74.17
2023-04-19T02:14:38.288Z,74.57
2023-04-19T02:17:06.241Z,74.77
2023-04-19T02:19:34.182Z,75.03
2023-04-19T02:22:02.114Z,75.18
2023-04-19T02:24:30.101Z,75.39
2023-04-19T02:26:58.317Z,74.31
2023-04-19T02:29:26.334Z,74.23
2023-04-19T02:31:55.728Z,74.01
2023-04-19T02:34:23.682Z,74.35
2023-04-19T02:36:51.698Z,74.60
2023-04-19T02:39:19.632Z,75.17
2023-04-19T02:41:47.553Z,75.19
2023-04-19T02:44:15.685Z,74.34
2023-04-19T02:46:49.777Z,75.11
2023-04-19T02:49:19.319Z,75.65
2023-04-19T02:51:47.308Z,74.99
2023-04-19T02:54:16.134Z,74.76
2023-04-19T02:56:46.219Z,75.16
2023-04-19T02:59:14.134Z,75.37
2023-04-19T03:01:42.695Z,75.49
2023-04-19T03:04:10.837Z,75.08
2023-04-19T03:06:42.165Z,75.32
2023-04-19T03:09:10.323Z,75.58
2023-04-19T03:11:38.760Z,75.72
2023-04-19T03:14:06.683Z,76.47
2023-04-19T03:16:34.822Z,76.50
2023-04-19T03:19:02.795Z,76.42
2023-04-19T03:21:35.885Z,75.49
2023-04-19T03:24:05.413Z,75.50
2023-04-19T03:26:33.718Z,76.10
2023-04-19T03:29:03.041Z,76.00
2023-04-19T03:31:43.696Z,76.84
2023-04-19T03:34:14.237Z,75.99
2023-04-19T03:36:45.796Z,76.46
2023-04-19T03:39:15.129Z,76.40
2023-04-19T03:41:46.450Z,75.86
2023-04-19T03:44:25.093Z,75.98
2023-04-19T03:46:54.088Z,76.40
2023-04-19T03:49:26.579Z,76.07
2023-04-19T03:52:05.255Z,76.93
2023-04-19T03:54:36.160Z,76.34
2023-04-19T03:57:06.239Z,76.53
2023-04-19T03:59:38.021Z,76.94
2023-04-19T04:02:07.264Z,77.09
2023-04-19T04:04:35.594Z,76.73
2023-04-19T04:07:03.678Z,77.30
2023-04-19T04:09:31.633Z,77.33
2023-04-19T04:12:02.005Z,76.99
2023-04-19T04:14:31.397Z,76.90
2023-04-19T04:17:00.814Z,76.43
2023-04-19T04:19:28.768Z,76.54
2023-04-19T04:21:56.905Z,77.10
2023-04-19T04:24:26.230Z,76.73
2023-04-19T04:27:20.311Z,77.84
2023-04-19T04:29:53.098Z,77.77
2023-04-19T04:32:23.334Z,77.83
2023-04-19T04:34:55.628Z,78.20
2023-04-19T04:37:34.508Z,77.73
2023-04-19T04:40:04.946Z,77.43
2023-04-19T04:42:35.675Z,77.48
2023-04-19T04:45:04.344Z,77.58
2023-04-19T04:47:34.174Z,77.87
2023-04-19T04:50:06.142Z,78.07
2023-04-19T04:52:34.393Z,78.75
2023-04-19T04:55:15.019Z,80.28
2023-04-19T04:57:46.663Z,80.70
2023-04-19T05:00:21.730Z,78.76
2023-04-19T05:02:58.673Z,78.59
2023-04-19T05:05:27.139Z,77.96
2023-04-19T05:07:56.874Z,78.70
2023-04-19T05:10:24.888Z,78.66
2023-04-19T05:12:55.295Z,77.90
2023-04-19T05:15:23.490Z,78.39
2023-04-19T05:17:55.051Z,77.94
2023-04-19T05:20:23.716Z,79.24
2023-04-19T05:23:01.242Z,79.69
2023-04-19T05:25:29.168Z,79.73
2023-04-19T05:27:59.041Z,79.82
2023-04-19T05:30:31.908Z,80.35
2023-04-19T05:33:00.250Z,80.71
2023-04-19T05:35:28.732Z,79.52
2023-04-19T05:37:57.163Z,79.69
2023-04-19T05:40:25.950Z,78.86
2023-04-19T05:42:54.089Z,80.05
2023-04-19T05:45:24.366Z,78.81
2023-04-19T05:47:52.517Z,78.56
2023-04-19T05:50:40.562Z,78.76
2023-04-19T05:53:26.796Z,79.50
2023-04-19T05:55:56.615Z,79.12
2023-04-19T05:58:24.734Z,78.83
2023-04-19T06:00:54.477Z,79.07
2023-04-19T06:03:24.896Z,79.21
2023-04-19T06:05:54.771Z,80.42
2023-04-19T06:08:22.760Z,79.20
2023-04-19T06:10:55.696Z,79.72
2023-04-19T06:13:25.384Z,80.87
2023-04-19T06:15:55.171Z,80.80
2023-04-19T06:18:23.136Z,80.25
2023-04-19T06:20:51.495Z,79.75
2023-04-19T06:23:19.473Z,79.25
2023-04-19T06:25:49.005Z,78.97
2023-04-19T06:28:17.230Z,79.51
2023-04-19T06:30:45.184Z,78.87
2023-04-19T06:33:14.529Z,79.85
2023-04-19T06:35:42.430Z,80.41
2023-04-19T06:38:10.341Z,79.40
2023-04-19T06:40:38.262Z,79.41
2023-04-19T06:43:06.296Z,80.43
2023-04-19T06:45:34.321Z,79.85
2023-04-19T06:48:02.487Z,79.70
2023-04-19T06:50:32.006Z,79.08
2023-04-19T06:53:00.005Z,78.97
2023-04-19T06:55:28.169Z,78.65
2023-04-19T06:57:56.055Z,77.94
2023-04-19T07:00:24.556Z,78.26
2023-04-19T07:02:52.688Z,77.74
2023-04-19T07:05:20.743Z,76.84
2023-04-19T07:07:49.977Z,76.94
2023-04-19T07:10:18.142Z,77.12
2023-04-19T07:12:46.216Z,77.79
2023-04-19T07:15:14.150Z,77.12
2023-04-19T07:17:42.247Z,77.28
2023-04-19T07:20:10.924Z,76.78
2023-04-19T07:22:38.832Z,76.31
2023-04-19T07:25:09.305Z,76.34
2023-04-19T07:27:37.219Z,75.49
2023-04-19T07:30:05.677Z,74.80
2023-04-19T07:32:33.812Z,74.83
2023-04-19T07:35:02.375Z,75.56
2023-04-19T07:37:31.396Z,75.05
2023-04-19T07:39:59.564Z,74.51
2023-04-19T07:42:30.940Z,75.20
2023-04-19T07:44:59.669Z,74.29
2023-04-19T07:47:27.659Z,73.64
2023-04-19T07:49:56.772Z,72.89
2023-04-19T07:52:24.682Z,73.36
2023-04-19T07:54:52.619Z,73.13
2023-04-19T07:57:20.576Z,73.06
2023-04-19T07:59:49.882Z,73.19
2023-04-19T08:02:19.232Z,73.08
2023-04-19T08:04:49.758Z,73.43
2023-04-19T08:07:18.032Z,73.18
2023-04-19T08:09:46.040Z,73.07
2023-04-19T08:12:26.280Z,72.51
2023-04-19T08:15:13.522Z,72.52
2023-04-19T08:17:50.511Z,71.75
2023-04-19T08:20:19.553Z,71.60
2023-04-19T08:22:47.700Z,71.89
2023-04-19T08:25:16.648Z,73.19
2023-04-19T08:27:44.649Z,72.17
2023-04-19T08:30:14.611Z,71.10
2023-04-19T08:32:42.522Z,70.40
2023-04-19T08:35:11.160Z,71.26
2023-04-19T08:37:39.067Z,70.69
2023-04-19T08:40:08.625Z,71.28
2023-04-19T08:42:37.284Z,70.50
2023-04-19T08:50:28.363Z,70.76
2023-04-19T08:53:12.160Z,70.89
2023-04-19T08:58:28.861Z,70.44
2023-04-19T09:01:17.066Z,69.91
2023-04-19T09:04:09.623Z,71.26
2023-04-19T09:06:43.915Z,71.50
2023-04-19T09:11:53.405Z,70.52
2023-04-19T09:14:23.686Z,70.38
2023-04-19T09:16:52.609Z,70.64
2023-04-19T09:19:25.216Z,69.49
2023-04-19T09:21:54.811Z,69.78
2023-04-19T09:27:12.250Z,68.56
2023-04-19T09:29:40.556Z,68.86
2023-04-19T09:32:08.585Z,68.27
2023-04-19T09:34:52.783Z,69.21
2023-04-19T09:37:38.474Z,67.30
2023-04-19T09:40:23.325Z,67.11
2023-04-19T09:48:03.441Z,66.03
2023-04-19T09:50:34.142Z,66.87
2023-04-19T09:53:08.044Z,68.21
2023-04-19T09:55:52.626Z,68.07
2023-04-19T09:58:31.820Z,68.43
2023-04-19T10:01:15.127Z,68.85
2023-04-19T10:03:46.898Z,67.90
2023-04-19T10:08:51.262Z,69.09
2023-04-19T10:11:21.969Z,67.26
2023-04-19T10:13:51.096Z,67.60
2023-04-19T10:16:20.509Z,66.98
2023-04-19T10:18:49.885Z,65.71
2023-04-19T10:21:21.206Z,65.74
2023-04-19T10:23:49.794Z,65.56
2023-04-19T10:26:17.777Z,66.21
2023-04-19T10:28:45.737Z,65.62
2023-04-19T10:31:14.256Z,65.50
2023-04-19T10:33:43.032Z,65.10
2023-04-19T10:36:12.255Z,66.06
2023-04-19T10:38:43.514Z,66.49
2023-04-19T10:41:16.494Z,65.46
2023-04-19T10:43:48.413Z,64.54
2023-04-19T10:46:36.994Z,64.26
2023-04-19T10:49:06.460Z,64.48
2023-04-19T10:51:36.584Z,65.14
2023-04-19T10:54:07.186Z,64.59
2023-04-19T10:57:05.062Z,63.49
2023-04-19T10:59:34.426Z,63.26
2023-04-19T11:02:04.306Z,63.66
2023-04-19T11:05:01.839Z,64.46
2023-04-19T11:07:29.867Z,64.45
2023-04-19T11:09:59.191Z,63.99
2023-04-19T11:12:27.114Z,63.97
2023-04-19T11:14:57.711Z,63.55
2023-04-19T11:17:27.947Z,63.18
2023-04-19T11:19:57.571Z,62.94
2023-04-19T11:22:33.536Z,64.92
2023-04-19T11:25:13.173Z,64.50
2023-04-19T11:27:42.910Z,63.84
2023-04-19T11:30:13.193Z,63.69
2023-04-19T11:32:46.727Z,63.81
2023-04-19T11:35:15.097Z,63.18
2023-04-19T11:37:43.016Z,62.24
2023-04-19T11:40:16.500Z,61.67
2023-04-19T11:42:45.001Z,62.90
2023-04-19T11:45:26.099Z,63.33
2023-04-19T11:47:57.814Z,62.41
2023-04-19T11:50:33.915Z,63.11
2023-04-19T11:53:10.675Z,63.32
2023-04-19T11:55:40.144Z,61.95
2023-04-19T11:58:09.823Z,61.88
2023-04-19T12:00:38.054Z,63.85
2023-04-19T12:03:06.355Z,62.52
2023-04-19T12:05:34.907Z,62.48
2023-04-19T12:08:04.762Z,63.10
2023-04-19T12:10:33.434Z,61.51
2023-04-19T12:13:03.056Z,61.49
2023-04-19T12:15:43.728Z,61.91
2023-04-19T12:18:11.763Z,61.42
2023-04-19T12:20:45.762Z,60.77
2023-04-19T12:23:14.036Z,61.53
2023-04-19T12:25:42.128Z,60.73
2023-04-19T12:28:11.456Z,61.89
2023-04-19T12:30:40.169Z,61.86
2023-04-19T12:33:08.564Z,61.79
2023-04-19T12:35:37.502Z,61.79
2023-04-19T12:38:05.397Z,61.36
2023-04-19T12:40:33.806Z,61.79
2023-04-19T12:43:01.757Z,62.42
2023-04-19T12:45:31.892Z,62.53
2023-04-19T12:48:01.140Z,61.16
2023-04-19T12:50:29.065Z,59.92
2023-04-19T12:52:57.013Z,59.74
2023-04-19T12:55:25.041Z,58.94
2023-04-19T12:57:52.937Z,57.02
2023-04-19T13:00:21.247Z,56.66
2023-04-19T13:02:50.729Z,56.83
2023-04-19T13:05:18.833Z,55.89
2023-04-19T13:07:46.946Z,55.63
2023-04-19T13:10:15.074Z,55.42
2023-04-19T13:12:43.049Z,55.79
2023-04-19T13:15:11.824Z,54.57
2023-04-19T13:17:39.792Z,53.90
2023-04-19T13:20:10.690Z,53.12
2023-04-19T13:22:38.644Z,53.43
2023-04-19T13:25:07.417Z,54.53
2023-04-19T13:27:35.346Z,52.66
2023-04-19T13:30:03.514Z,50.26
2023-04-19T13:32:31.501Z,51.20
2023-04-19T13:34:59.482Z,51.18
2023-04-19T13:37:28.794Z,50.96
2023-04-19T13:40:06.939Z,52.68
2023-04-19T13:42:43.141Z,52.22
2023-04-19T13:45:11.592Z,53.03
2023-04-19T13:47:39.588Z,50.49
2023-04-19T13:50:08.872Z,47.73
2023-04-19T13:52:38.239Z,46.27
2023-04-19T13:55:06.728Z,48.03
2023-04-19T13:57:34.659Z,47.28
2023-04-19T14:00:02.642Z,47.81
2023-04-19T14:02:35.203Z,48.31
2023-04-19T14:05:04.617Z,49.59
2023-04-19T14:07:32.654Z,49.57
2023-04-19T14:10:02.015Z,50.21
2023-04-19T14:12:29.965Z,51.73
2023-04-19T14:14:57.879Z,52.27
2023-04-19T14:17:26.288Z,51.67
2023-04-19T14:19:54.312Z,53.25
2023-04-19T14:22:22.281Z,52.75
2023-04-19T14:24:50.190Z,52.78
2023-04-19T14:27:19.450Z,52.44
2023-04-19T14:29:47.377Z,54.42
2023-04-19T14:34:46.416Z,52.04
2023-04-19T14:37:14.326Z,52.66
2023-04-19T14:39:42.212Z,52.14
2023-04-19T14:42:10.103Z,52.37
2023-04-19T14:44:39.423Z,51.80
2023-04-19T14:47:07.555Z,50.38
2023-04-19T14:49:35.562Z,50.27
2023-04-19T14:52:04.015Z,50.38
2023-04-19T14:54:32.048Z,52.23
2023-04-19T14:57:00.279Z,52.14
2023-04-19T14:59:29.848Z,52.68
2023-04-19T15:01:59.384Z,52.26
2023-04-19T15:04:27.591Z,52.47
2023-04-19T15:06:55.637Z,52.28
2023-04-19T15:09:23.589Z,53.04
2023-04-19T15:11:51.557Z,53.12
2023-04-19T15:14:19.827Z,51.57
2023-04-19T15:16:47.753Z,50.85
2023-04-19T15:19:17.139Z,52.49
2023-04-19T15:21:45.250Z,50.60
2023-04-19T15:24:13.161Z,50.86
2023-04-19T15:26:43.621Z,50.48
2023-04-19T15:29:12.278Z,50.79
2023-04-19T15:31:40.545Z,50.94
2023-04-19T15:34:08.522Z,50.23
2023-04-19T15:36:37.866Z,50.35
2023-04-19T15:39:05.755Z,50.58
2023-04-19T15:41:33.689Z,51.36
2023-04-19T15:44:01.605Z,51.04
2023-04-19T15:46:29.581Z,51.14
2023-04-19T15:48:57.510Z,52.49
2023-04-19T15:51:25.448Z,52.84
2023-04-19T15:53:54.837Z,53.32
2023-04-19T15:56:23.249Z,53.95
2023-04-19T15:58:51.099Z,53.58
2023-04-19T16:01:19.433Z,54.38
2023-04-19T16:03:47.537Z,54.18
2023-04-19T16:06:15.742Z,54.42
2023-04-19T16:08:43.685Z,53.93
2023-04-19T16:11:13.040Z,53.56
2023-04-19T16:13:40.975Z,54.24
2023-04-19T16:16:09.080Z,53.96
2023-04-19T16:18:37.017Z,53.90
2023-04-19T16:21:05.212Z,53.76
2023-04-19T16:23:33.116Z,53.53
2023-04-19T16:26:01.103Z,53.70
2023-04-19T16:28:30.453Z,53.08
2023-04-19T16:30:58.444Z,53.42
2023-04-19T16:33:26.341Z,54.03
2023-04-19T16:35:54.448Z,54.54
2023-04-19T16:38:22.453Z,54.70
2023-04-19T16:40:50.498Z,55.09
2023-04-19T16:43:20.799Z,55.45
2023-04-19T16:45:50.173Z,55.15
2023-04-19T16:48:18.339Z,55.42
2023-04-19T16:50:46.588Z,55.48
2023-04-19T16:53:14.495Z,55.92
2023-04-19T16:55:42.449Z,56.05
2023-04-19T16:58:10.317Z,56.19
2023-04-19T17:00:39.271Z,55.26
2023-04-19T17:03:09.833Z,55.68
2023-04-19T17:05:37.852Z,56.28
2023-04-19T17:08:06.508Z,56.58
2023-04-19T17:10:34.673Z,56.07
2023-04-19T17:13:02.572Z,56.51
2023-04-19T17:15:31.574Z,56.80
2023-04-19T17:17:59.613Z,57.13
2023-04-19T17:20:29.030Z,57.50
2023-04-19T17:22:57.138Z,57.36
2023-04-19T17:25:25.041Z,57.25
2023-04-19T17:27:52.953Z,57.21
2023-04-19T17:30:20.893Z,57.39
2023-04-19T17:32:48.812Z,57.77
2023-04-19T17:35:17.000Z,57.34
2023-04-19T17:37:46.260Z,57.76
2023-04-19T17:40:14.305Z,57.56
2023-04-19T17:42:42.207Z,56.40
2023-04-19T17:45:11.254Z,55.81
2023-04-19T17:47:39.533Z,55.84
2023-04-19T17:50:09.098Z,55.94
2023-04-19T17:52:37.184Z,55.28
2023-04-19T17:55:07.494Z,54.99
2023-04-19T17:57:35.652Z,54.61
2023-04-19T18:00:06.113Z,54.51
2023-04-19T18:02:37.312Z,54.49
2023-04-19T18:05:05.986Z,54.34
2023-04-19T18:07:34.145Z,54.48
2023-04-19T18:10:02.010Z,54.48
2023-04-19T18:12:31.435Z,54.34
2023-04-19T18:14:59.335Z,54.25
2023-04-19T18:17:27.253Z,54.14
2023-04-19T18:19:55.257Z,54.11
2023-04-19T18:22:23.211Z,54.41
2023-04-19T18:24:51.568Z,54.18
2023-04-19T18:27:19.477Z,54.37
2023-04-19T18:29:52.279Z,53.72
2023-04-19T18:32:21.879Z,53.64
2023-04-19T18:34:49.884Z,53.72
2023-04-19T18:37:18.544Z,53.16
2023-04-19T18:39:46.673Z,53.43
2023-04-19T18:42:14.620Z,53.29
2023-04-19T18:47:14.893Z,52.51
2023-04-19T18:49:52.667Z,52.50
2023-04-19T18:52:27.622Z,52.85
2023-04-19T18:54:58.364Z,53.25
2023-04-19T18:57:27.640Z,53.62
2023-04-19T18:59:57.147Z,54.69
2023-04-19T19:02:27.567Z,54.69
2023-04-19T19:04:58.366Z,55.70
2023-04-19T19:10:02.526Z,56.31
2023-04-19T19:12:33.757Z,56.15
2023-04-19T19:15:01.639Z,55.95
2023-04-19T19:17:31.090Z,56.03
2023-04-19T19:20:01.188Z,56.31
2023-04-19T19:22:29.303Z,56.60
2023-04-19T19:24:57.506Z,56.51
2023-04-19T19:27:25.746Z,56.37
2023-04-19T19:29:53.731Z,56.92
2023-04-19T19:32:22.152Z,57.14
2023-04-19T19:34:56.695Z,57.34
2023-04-19T19:37:29.932Z,58.24
2023-04-19T19:40:02.793Z,58.91
2023-04-19T19:42:32.386Z,58.46
2023-04-19T19:45:00.286Z,59.10
2023-04-19T19:47:30.763Z,59.37
2023-04-19T19:52:31.938Z,60.38
2023-04-19T19:55:00.319Z,60.48
2023-04-19T20:00:17.915Z,60.79
2023-04-19T20:05:20.916Z,62.26
2023-04-19T20:10:20.602Z,61.91
2023-04-19T20:12:48.571Z,62.81
2023-04-19T20:15:16.614Z,64.44
2023-04-19T20:17:44.634Z,64.74
2023-04-19T20:20:13.655Z,65.58
2023-04-19T20:22:42.938Z,66.00
2023-04-19T20:25:13.153Z,65.55
2023-04-19T20:27:41.260Z,65.30
2023-04-19T20:30:10.737Z,64.71
2023-04-19T20:32:42.455Z,63.64
2023-04-19T20:35:12.718Z,63.30
2023-04-19T20:37:42.075Z,63.24
2023-04-19T20:40:12.522Z,63.11
2023-04-19T20:42:41.351Z,63.43
2023-04-19T20:45:10.948Z,62.79
2023-04-19T20:47:39.475Z,63.42
2023-04-19T20:50:08.349Z,63.06
2023-04-19T20:52:36.555Z,62.88
2023-04-19T20:55:06.585Z,62.93
2023-04-19T20:57:34.515Z,62.90
2023-04-19T21:00:02.454Z,63.46
2023-04-19T21:02:30.559Z,63.63
2023-04-19T21:04:58.527Z,64.00
2023-04-19T21:07:26.484Z,63.93
2023-04-19T21:09:54.451Z,63.79
2023-04-19T21:12:23.785Z,64.62
2023-04-19T21:14:52.859Z,64.60
2023-04-19T21:17:21.448Z,64.85
2023-04-19T21:19:49.439Z,65.16
2023-04-19T21:22:17.387Z,65.38
2023-04-19T21:24:45.268Z,65.31
2023-04-19T21:27:13.208Z,65.47
2023-04-19T21:29:42.488Z,65.42
2023-04-19T21:32:10.414Z,65.03
2023-04-19T21:34:38.379Z,65.36
2023-04-19T21:37:06.363Z,65.23
2023-04-19T21:39:34.271Z,65.92
2023-04-19T21:42:02.298Z,66.13
2023-04-19T21:44:30.272Z,66.52
2023-04-19T21:46:59.682Z,66.76
2023-04-19T21:49:27.695Z,67.40
2023-04-19T21:51:56.889Z,68.00
2023-04-19T21:54:33.501Z,68.39
2023-04-19T21:57:02.616Z,68.40
2023-04-19T21:59:30.943Z,68.16
2023-04-19T22:02:00.810Z,68.11
2023-04-19T22:04:30.980Z,68.15
2023-04-19T22:07:02.114Z,68.36
2023-04-19T22:09:31.125Z,68.16
2023-04-19T22:12:00.120Z,68.79
2023-04-19T22:14:28.493Z,69.27
2023-04-19T22:16:56.655Z,69.78
2023-04-19T22:19:26.153Z,69.81
2023-04-19T22:21:55.139Z,69.97
2023-04-19T22:24:23.322Z,69.82
2023-04-19T22:26:53.063Z,69.51
2023-04-19T22:29:21.469Z,69.17
2023-04-19T22:31:49.488Z,69.25
2023-04-19T22:34:17.453Z,69.16
2023-04-19T22:36:46.879Z,69.70
2023-04-19T22:39:16.051Z,69.43
2023-04-19T22:41:44.167Z,69.60
2023-04-19T22:44:12.146Z,69.35
2023-04-19T22:46:40.172Z,69.71
2023-04-19T22:49:10.097Z,69.58
2023-04-19T22:51:38.416Z,70.00
2023-04-19T22:54:07.725Z,70.02
2023-04-19T22:56:35.829Z,70.04
2023-04-19T22:59:03.823Z,70.95
2023-04-19T23:01:31.832Z,72.80
2023-04-19T23:03:59.797Z,74.00
2023-04-19T23:06:29.083Z,74.29
2023-04-19T23:08:57.367Z,72.74
2023-04-19T23:11:26.939Z,71.89
2023-04-19T23:13:54.922Z,72.10
2023-04-19T23:16:25.336Z,71.89
2023-04-19T23:18:53.325Z,71.71
2023-04-19T23:21:21.235Z,71.61
2023-04-19T23:23:49.174Z,71.28
2023-04-19T23:26:17.115Z,71.53
2023-04-19T23:28:46.442Z,71.53
2023-04-19T23:31:14.378Z,71.97
2023-04-19T23:33:42.280Z,71.54
2023-04-19T23:36:10.369Z,71.50
2023-04-19T23:38:38.261Z,71.76
2023-04-19T23:41:06.596Z,72.14
2023-04-19T23:43:34.497Z,73.11
2023-04-19T23:46:03.979Z,72.34
2023-04-19T23:48:31.898Z,72.78
2023-04-19T23:50:59.805Z,72.94
2023-04-19T23:53:27.699Z,72.34
2023-04-19T23:55:55.654Z,72.62
2023-04-19T23:58:23.588Z,72.72
